Tea, SD (57064)

2:07 PM CDT on September 04, 2015 (GMT -0500)
NonFedAWOS | | Change Station
CLOSE
Current Station
Personal Weather Station
Location: Tea, SD
Elevation: 1515 ft
Nearby Weather Stations

Elev 1515 ft 43.46 °N, 96.80 °W | Updated 32 minutes ago

Mostly Cloudy
Mostly Cloudy
75 °F
Feels Like 72 °F
N
9
Wind Variable Wind from East
Gusts 0.0 mph

Today
High -- | Low -- °F
--% Chance of Precip.
Yesterday
High -- | Low -- °F
Precip. -- in
6:54 AM 7:57 PM
Waning Gibbous, 57% visible
Pressure 29.83 in
Visibility 10.0 miles
Clouds Scattered Clouds 5000 ft
Mostly Cloudy 12000 ft
Overcast 15000 ft
Heat Index 72 °F
Dew Point 75 °F
Humidity 100%
Rainfall in
Snow Depth Not available.
UV 2 out of 12
Pollen 9.80 out of 12
Air Quality Not available.
Flu Activity Not available.
METAR KFSD 041856Z 11011KT 10SM SCT050 BKN120 OVC150 24/21 A2986 RMK AO2 RAE19 SLP102 P0001 T02390206
Pressure 29.83 in
Visibility 10.0 miles
Clouds Scattered Clouds 5000 ft
Mostly Cloudy 12000 ft
Overcast 15000 ft
Heat Index 72 °F
Dew Point 75 °F
Humidity 100%
Rainfall in
Snow Depth Not available.
UV 2 out of 12
Pollen 9.80 out of 12
Air Quality Not available.
Flu Activity Not available.
METAR KFSD 041856Z 11011KT 10SM SCT050 BKN120 OVC150 24/21 A2986 RMK AO2 RAE19 SLP102 P0001 T02390206

10-Day Weather Forecast

×

Almanac

Astronomy

Sep. 04, 2015 Rise Set
Actual Time
Civil Twilight
Nautical Twilight
Astronomical Twilight
Moon
Length of Visible Light
Length of Day
Tomorrow will be .
, % of the Moon is Illuminated

Today's Extremes

State Highs State Lows

Community

WunderPhotos

Upload Photos

1,852,267 photos uploaded!

WunderBlogs® & News

Nearby

Air Quality

  Air Quality AQ Index Pollutant
Not available.

Snow Depth

Station Depth Elevation

Earthquake Activity

City Distance Mag. Time & Date
Minimum magnitude displayed is 2.5.

Coastal Water Temperatures

Place Temperature

Stations

Nearby Weather Stations

Station Location Temp. Windchill Dew Point Humidity Wind Precip. Elev Updated Type